createdAt,value
2022-07-26T00:00:29.497Z,0.70
2022-07-26T00:02:56.429Z,0.87
2022-07-26T00:05:23.339Z,0.80
2022-07-26T00:07:51.148Z,1.07
2022-07-26T00:10:17.952Z,0.80
2022-07-26T00:12:44.740Z,0.80
2022-07-26T00:15:12.009Z,0.83
2022-07-26T00:17:39.615Z,0.80
2022-07-26T00:20:07.286Z,1.20
2022-07-26T00:22:34.234Z,0.70
2022-07-26T00:25:06.204Z,1.00
2022-07-26T00:27:36.988Z,0.90
2022-07-26T00:30:08.745Z,1.07
2022-07-26T00:32:36.268Z,0.80
2022-07-26T00:35:03.701Z,0.83
2022-07-26T00:37:30.612Z,0.70
2022-07-26T00:39:57.390Z,0.70
2022-07-26T00:42:24.220Z,0.70
2022-07-26T00:44:52.798Z,0.80
2022-07-26T00:47:20.664Z,0.90
2022-07-26T00:49:47.594Z,1.23
2022-07-26T00:52:14.491Z,0.70
2022-07-26T00:54:46.625Z,0.90
2022-07-26T00:57:14.940Z,1.10
2022-07-26T00:59:42.132Z,0.80
2022-07-26T01:02:10.630Z,0.90
2022-07-26T01:04:37.550Z,0.67
2022-07-26T01:07:14.833Z,1.00
2022-07-26T01:09:43.401Z,0.77
2022-07-26T01:12:10.356Z,0.80
2022-07-26T01:14:37.498Z,0.90
2022-07-26T01:17:04.414Z,0.70
2022-07-26T01:19:31.263Z,0.80
2022-07-26T01:21:58.454Z,1.33
2022-07-26T01:24:25.247Z,1.00
2022-07-26T01:26:52.051Z,0.70
2022-07-26T01:29:18.854Z,0.90
2022-07-26T01:31:45.681Z,1.07
2022-07-26T01:34:12.583Z,0.77
2022-07-26T01:36:39.712Z,1.10
2022-07-26T01:39:07.034Z,0.77
2022-07-26T01:41:37.755Z,0.80
2022-07-26T01:44:07.565Z,0.83
2022-07-26T01:46:35.473Z,1.00
2022-07-26T01:49:02.715Z,0.63
2022-07-26T01:51:29.533Z,0.80
2022-07-26T01:53:56.620Z,0.90
2022-07-26T01:56:23.426Z,0.83
2022-07-26T01:58:50.371Z,0.90
2022-07-26T02:01:37.967Z,1.20
2022-07-26T02:04:04.512Z,1.10
2022-07-26T02:06:31.631Z,1.00
2022-07-26T02:08:58.623Z,0.93
2022-07-26T02:11:26.270Z,1.00
2022-07-26T02:13:53.443Z,0.90
2022-07-26T02:16:20.419Z,1.03
2022-07-26T02:18:47.315Z,1.20
2022-07-26T02:21:14.172Z,1.40
2022-07-26T02:23:41.850Z,1.20
2022-07-26T02:26:14.695Z,1.10
2022-07-26T02:28:41.803Z,1.20
2022-07-26T02:31:08.698Z,0.93
2022-07-26T02:33:35.570Z,1.20
2022-07-26T02:36:02.445Z,1.10
2022-07-26T02:38:29.272Z,1.00
2022-07-26T02:40:56.039Z,1.10
2022-07-26T02:43:22.916Z,1.10
2022-07-26T02:46:01.605Z,1.13
2022-07-26T02:48:32.399Z,1.37
2022-07-26T02:50:59.603Z,1.00
2022-07-26T02:53:26.454Z,1.20
2022-07-26T02:55:53.290Z,1.10
2022-07-26T02:58:24.992Z,1.10
2022-07-26T03:00:51.809Z,1.20
2022-07-26T03:03:18.618Z,1.00
2022-07-26T03:05:45.678Z,1.00
2022-07-26T03:08:12.581Z,1.07
2022-07-26T03:10:40.102Z,1.00
2022-07-26T03:13:07.246Z,1.00
2022-07-26T03:15:34.132Z,1.00
2022-07-26T03:18:01.234Z,0.90
2022-07-26T03:20:28.117Z,1.30
2022-07-26T03:22:55.067Z,1.30
2022-07-26T03:25:21.994Z,1.10
2022-07-26T03:27:48.783Z,1.20
2022-07-26T03:30:15.794Z,1.20
2022-07-26T03:32:42.566Z,0.90
2022-07-26T03:35:09.539Z,0.83
2022-07-26T03:37:45.569Z,0.87
2022-07-26T03:40:15.021Z,0.90
2022-07-26T03:42:43.822Z,0.90
2022-07-26T03:45:11.461Z,1.10
2022-07-26T03:47:38.659Z,1.07
2022-07-26T03:50:06.926Z,1.00
2022-07-26T03:52:34.570Z,0.90
2022-07-26T03:55:21.379Z,1.00
2022-07-26T03:57:48.309Z,1.00
2022-07-26T04:00:15.257Z,0.90
2022-07-26T04:02:42.174Z,0.67
2022-07-26T04:05:09.547Z,1.07
2022-07-26T04:07:42.922Z,0.93
2022-07-26T04:10:10.533Z,1.13
2022-07-26T04:12:37.391Z,0.87
2022-07-26T04:15:05.740Z,0.90
2022-07-26T04:17:40.045Z,0.93
2022-07-26T04:20:08.409Z,1.00
2022-07-26T04:22:36.459Z,0.90
2022-07-26T04:25:05.514Z,1.40
2022-07-26T04:27:32.560Z,1.10
2022-07-26T04:29:59.606Z,1.00
2022-07-26T04:32:26.862Z,1.30
2022-07-26T04:34:53.837Z,1.20
2022-07-26T04:37:20.643Z,1.10
2022-07-26T04:39:51.646Z,1.20
2022-07-26T04:42:21.408Z,1.20
2022-07-26T04:44:48.232Z,1.30
2022-07-26T04:47:15.066Z,1.10
2022-07-26T04:49:41.853Z,1.10
2022-07-26T04:52:08.664Z,0.90
2022-07-26T04:54:35.515Z,1.30
2022-07-26T04:57:05.708Z,1.10
2022-07-26T04:59:33.970Z,0.97
2022-07-26T05:02:00.805Z,1.30
2022-07-26T05:04:27.653Z,1.17
2022-07-26T05:06:54.474Z,1.33
2022-07-26T05:09:21.276Z,1.03
2022-07-26T05:11:48.165Z,1.17
2022-07-26T05:14:15.933Z,1.00
2022-07-26T05:16:44.406Z,1.13
2022-07-26T05:19:12.284Z,1.27
2022-07-26T05:21:39.120Z,1.00
2022-07-26T05:24:07.714Z,1.07
2022-07-26T05:26:35.134Z,0.97
2022-07-26T05:29:02.228Z,1.00
2022-07-26T05:31:29.135Z,1.03
2022-07-26T05:33:56.010Z,1.10
2022-07-26T05:36:22.846Z,0.80
2022-07-26T05:38:49.637Z,0.87
2022-07-26T05:41:16.863Z,1.10
2022-07-26T05:43:43.645Z,1.13
2022-07-26T05:46:12.130Z,1.33
2022-07-26T05:48:40.197Z,1.27
2022-07-26T05:51:07.159Z,1.20
2022-07-26T05:53:34.222Z,1.20
2022-07-26T05:56:01.046Z,1.00
2022-07-26T05:58:28.842Z,1.23
2022-07-26T06:00:55.603Z,1.10
2022-07-26T06:03:22.363Z,1.37
2022-07-26T06:05:51.389Z,1.37
2022-07-26T06:08:19.042Z,1.40
2022-07-26T06:10:46.880Z,1.23
2022-07-26T06:13:13.887Z,1.20
2022-07-26T06:15:42.982Z,1.10
2022-07-26T06:18:10.315Z,1.23
2022-07-26T06:20:43.040Z,1.20
2022-07-26T06:23:10.332Z,1.17
2022-07-26T06:25:37.409Z,1.30
2022-07-26T06:28:05.317Z,1.47
2022-07-26T06:30:32.451Z,1.53
2022-07-26T06:33:00.432Z,1.23
2022-07-26T06:35:30.991Z,0.90
2022-07-26T06:38:00.668Z,1.10
2022-07-26T06:40:27.800Z,1.10
2022-07-26T06:42:54.642Z,1.10
2022-07-26T06:45:22.053Z,1.20
2022-07-26T06:47:48.870Z,1.40
2022-07-26T06:50:15.695Z,1.00
2022-07-26T06:52:47.895Z,1.33
2022-07-26T06:55:14.930Z,1.10
2022-07-26T06:57:45.072Z,1.20
2022-07-26T07:00:17.559Z,1.30
2022-07-26T07:02:44.386Z,1.33
2022-07-26T07:05:12.051Z,0.98
2022-07-26T07:07:42.193Z,1.45
2022-07-26T07:10:10.205Z,1.05
2022-07-26T07:12:38.196Z,1.10
2022-07-26T07:15:05.489Z,1.23
2022-07-26T07:17:32.477Z,1.40
2022-07-26T07:20:00.558Z,1.30
2022-07-26T07:22:27.361Z,1.20
2022-07-26T07:24:54.168Z,1.77
2022-07-26T07:27:21.260Z,0.95
2022-07-26T07:29:48.196Z,1.30
2022-07-26T07:32:18.123Z,1.15
2022-07-26T07:34:48.282Z,1.23
2022-07-26T07:37:16.307Z,1.20
2022-07-26T07:39:44.326Z,1.60
2022-07-26T07:42:17.132Z,1.50
2022-07-26T07:44:45.103Z,1.38
2022-07-26T07:47:12.136Z,1.10
2022-07-26T07:49:39.054Z,1.40
2022-07-26T07:52:06.907Z,1.40
2022-07-26T07:54:33.806Z,1.65
2022-07-26T07:57:00.589Z,1.50
2022-07-26T07:59:27.451Z,1.20
2022-07-26T08:01:56.774Z,1.45
2022-07-26T08:04:24.954Z,1.52
2022-07-26T08:06:51.755Z,1.30
2022-07-26T08:09:19.502Z,1.30
2022-07-26T08:11:50.888Z,1.60
2022-07-26T08:14:18.788Z,1.15
2022-07-26T08:16:45.776Z,1.50
2022-07-26T08:19:13.143Z,1.60
2022-07-26T08:21:43.003Z,1.15
2022-07-26T08:24:10.848Z,1.60
2022-07-26T08:26:38.180Z,1.25
2022-07-26T08:29:05.326Z,1.27
2022-07-26T08:31:32.175Z,1.67
2022-07-26T08:33:58.994Z,1.23
2022-07-26T08:36:31.870Z,1.60
2022-07-26T08:39:00.570Z,1.50
2022-07-26T08:41:27.460Z,1.20
2022-07-26T08:43:55.501Z,1.23
2022-07-26T08:46:27.018Z,1.10
2022-07-26T08:48:57.428Z,1.42
2022-07-26T08:51:25.860Z,1.42
2022-07-26T08:54:05.760Z,1.70
2022-07-26T08:56:35.269Z,1.30
2022-07-26T08:59:17.092Z,1.15
2022-07-26T09:02:01.744Z,1.27
2022-07-26T09:04:33.218Z,1.20
2022-07-26T09:07:11.053Z,1.10
2022-07-26T09:10:00.496Z,1.40
2022-07-26T09:12:29.415Z,0.82
2022-07-26T09:14:57.301Z,0.93
2022-07-26T09:17:25.793Z,1.40
2022-07-26T09:20:04.648Z,1.40
2022-07-26T09:22:32.481Z,1.40
2022-07-26T09:24:59.520Z,1.60
2022-07-26T09:27:36.338Z,1.30
2022-07-26T09:30:08.615Z,1.48
2022-07-26T09:32:37.395Z,1.25
2022-07-26T09:35:44.116Z,1.00
2022-07-26T09:37:58.844Z,1.13
2022-07-26T09:40:33.794Z,1.10
2022-07-26T09:43:05.601Z,1.30
2022-07-26T09:45:35.259Z,1.15
2022-07-26T09:48:04.334Z,1.10
2022-07-26T09:50:33.463Z,1.13
2022-07-26T09:53:11.349Z,1.08
2022-07-26T09:55:45.016Z,1.10
2022-07-26T09:58:14.172Z,1.00
2022-07-26T10:00:42.124Z,1.20
2022-07-26T10:03:09.433Z,1.10
2022-07-26T10:05:36.901Z,1.13
2022-07-26T10:08:04.835Z,1.20
2022-07-26T10:10:45.266Z,1.38
2022-07-26T10:13:12.996Z,0.90
2022-07-26T10:15:46.877Z,0.95
2022-07-26T10:18:39.182Z,0.80
2022-07-26T10:21:25.115Z,1.00
2022-07-26T10:23:56.629Z,0.90
2022-07-26T10:26:32.349Z,1.00
2022-07-26T10:29:17.188Z,0.90
2022-07-26T10:31:48.089Z,0.82
2022-07-26T10:34:35.585Z,0.90
2022-07-26T10:37:05.300Z,1.00
2022-07-26T10:39:32.342Z,0.93
2022-07-26T10:42:01.833Z,0.82
2022-07-26T10:44:34.349Z,1.05
2022-07-26T10:47:02.977Z,0.70
2022-07-26T10:49:37.424Z,0.90
2022-07-26T10:52:20.114Z,1.10
2022-07-26T10:55:03.532Z,0.93
2022-07-26T10:57:38.599Z,0.90
2022-07-26T11:00:11.750Z,0.88
2022-07-26T11:02:38.923Z,0.82
2022-07-26T11:05:14.760Z,1.00
2022-07-26T11:08:11.070Z,0.82
2022-07-26T11:10:41.955Z,0.80
2022-07-26T11:13:13.074Z,0.82
2022-07-26T11:15:52.217Z,0.98
2022-07-26T11:18:24.904Z,0.70
2022-07-26T11:20:54.636Z,0.82
2022-07-26T11:23:27.213Z,1.25
2022-07-26T11:26:13.619Z,0.98
2022-07-26T11:28:52.901Z,0.90
2022-07-26T11:31:23.655Z,0.70
2022-07-26T11:34:22.118Z,0.82
2022-07-26T11:36:51.293Z,0.88
2022-07-26T11:39:23.873Z,0.95
2022-07-26T11:41:56.517Z,0.90
2022-07-26T11:44:24.459Z,0.80
2022-07-26T11:46:51.647Z,1.10
2022-07-26T11:49:25.083Z,0.80
2022-07-26T11:51:59.285Z,0.90
2022-07-26T11:54:28.952Z,0.70
2022-07-26T11:57:04.069Z,0.82
2022-07-26T11:59:34.061Z,0.77
2022-07-26T12:02:02.517Z,0.95
2022-07-26T12:04:32.535Z,0.85
2022-07-26T12:07:01.014Z,0.95
2022-07-26T12:09:36.898Z,1.00
2022-07-26T12:12:09.595Z,0.75
2022-07-26T12:14:38.282Z,0.82
2022-07-26T12:17:17.098Z,0.85
2022-07-26T12:19:45.195Z,0.82
2022-07-26T12:22:17.230Z,0.80
2022-07-26T12:24:51.983Z,0.75
2022-07-26T12:27:30.587Z,0.75
2022-07-26T12:30:16.112Z,1.10
2022-07-26T12:32:44.831Z,0.73
2022-07-26T12:35:14.055Z,0.80
2022-07-26T12:37:46.790Z,0.80
2022-07-26T12:40:19.160Z,1.00
2022-07-26T12:42:49.712Z,1.00
2022-07-26T12:45:21.691Z,0.80
2022-07-26T12:47:50.880Z,0.90
2022-07-26T12:50:19.673Z,0.90
2022-07-26T12:52:46.705Z,0.63
2022-07-26T12:55:16.600Z,0.63
2022-07-26T12:57:45.978Z,0.93
2022-07-26T13:00:16.771Z,0.80
2022-07-26T13:02:44.250Z,0.68
2022-07-26T13:05:11.664Z,0.82
2022-07-26T13:07:38.980Z,0.55
2022-07-26T13:10:31.760Z,0.63
2022-07-26T13:12:55.383Z,0.70
2022-07-26T13:15:22.340Z,0.80
2022-07-26T13:17:51.537Z,0.63
2022-07-26T13:20:18.418Z,0.82
2022-07-26T13:22:45.174Z,0.80
2022-07-26T13:25:11.945Z,0.70
2022-07-26T13:27:44.254Z,0.63
2022-07-26T13:30:12.304Z,0.70
2022-07-26T13:32:39.093Z,0.70
2022-07-26T13:35:06.546Z,0.80
2022-07-26T13:37:33.290Z,0.80
2022-07-26T13:40:00.421Z,0.80
2022-07-26T13:42:28.027Z,0.65
2022-07-26T13:44:54.808Z,0.70
2022-07-26T13:47:21.772Z,0.70
2022-07-26T13:49:48.680Z,0.60
2022-07-26T13:52:16.927Z,0.80
2022-07-26T13:54:44.112Z,0.80
2022-07-26T13:57:11.112Z,0.80
2022-07-26T13:59:37.913Z,0.77
2022-07-26T14:02:05.196Z,0.52
2022-07-26T14:04:32.144Z,0.70
2022-07-26T14:06:58.965Z,0.80
2022-07-26T14:09:25.808Z,0.80
2022-07-26T14:11:52.616Z,0.90
2022-07-26T14:14:19.392Z,0.70
2022-07-26T14:16:48.110Z,0.77
2022-07-26T14:19:16.914Z,0.60
2022-07-26T14:21:48.851Z,0.80
2022-07-26T14:24:27.239Z,0.60
2022-07-26T14:26:58.443Z,0.80
2022-07-26T14:29:26.154Z,0.75
2022-07-26T14:31:53.388Z,0.60
2022-07-26T14:34:20.258Z,0.80
2022-07-26T14:36:47.129Z,0.60
2022-07-26T14:39:13.949Z,0.50
2022-07-26T14:41:40.911Z,0.55
2022-07-26T14:44:08.029Z,0.80
2022-07-26T14:46:36.160Z,0.60
2022-07-26T14:49:02.964Z,0.80
2022-07-26T14:51:29.997Z,0.60
2022-07-26T14:53:56.826Z,0.73
2022-07-26T14:56:23.632Z,0.75
2022-07-26T14:58:50.551Z,0.60
2022-07-26T15:01:17.647Z,0.70
2022-07-26T15:03:44.590Z,0.63
2022-07-26T15:06:11.370Z,0.60
2022-07-26T15:08:38.206Z,0.85
2022-07-26T15:11:05.948Z,0.80
2022-07-26T15:13:33.719Z,0.70
2022-07-26T15:16:01.659Z,0.63
2022-07-26T15:18:28.842Z,0.82
2022-07-26T15:20:57.875Z,0.52
2022-07-26T15:23:26.388Z,0.70
2022-07-26T15:25:53.597Z,0.50
2022-07-26T15:28:20.540Z,0.50
2022-07-26T15:30:47.523Z,0.70
2022-07-26T15:33:15.436Z,0.90
2022-07-26T15:35:42.409Z,0.60
2022-07-26T15:38:09.270Z,0.63
2022-07-26T15:40:36.055Z,0.47
2022-07-26T15:43:08.667Z,0.70
2022-07-26T15:45:40.879Z,0.63
2022-07-26T15:48:17.082Z,0.82
2022-07-26T15:50:49.508Z,0.80
2022-07-26T15:53:16.717Z,0.50
2022-07-26T15:55:43.528Z,0.70
2022-07-26T15:58:13.107Z,0.75
2022-07-26T16:00:40.108Z,0.70
2022-07-26T16:03:06.975Z,0.50
2022-07-26T16:05:34.623Z,0.60
2022-07-26T16:08:01.572Z,0.50
2022-07-26T16:10:28.361Z,0.60
2022-07-26T16:12:55.166Z,0.75
2022-07-26T16:15:21.935Z,0.70
2022-07-26T16:17:48.748Z,0.60
2022-07-26T16:20:19.297Z,0.55
2022-07-26T16:22:47.673Z,0.68
2022-07-26T16:25:15.979Z,0.47
2022-07-26T16:27:43.945Z,0.70
2022-07-26T16:30:14.829Z,0.60
2022-07-26T16:32:42.203Z,0.52
2022-07-26T16:35:09.484Z,0.65
2022-07-26T16:37:37.440Z,0.60
2022-07-26T16:40:06.657Z,0.68
2022-07-26T16:42:34.862Z,0.68
2022-07-26T16:45:15.206Z,0.63
2022-07-26T16:47:44.324Z,0.85
2022-07-26T16:50:11.143Z,0.70
2022-07-26T16:52:38.150Z,0.40
2022-07-26T16:55:07.605Z,0.68
2022-07-26T16:57:34.454Z,0.70
2022-07-26T17:00:01.785Z,0.85
2022-07-26T17:02:28.653Z,0.60
2022-07-26T17:04:57.206Z,0.60
2022-07-26T17:07:26.264Z,0.52
2022-07-26T17:09:55.238Z,0.50
2022-07-26T17:12:23.563Z,0.63
2022-07-26T17:14:50.991Z,0.60
2022-07-26T17:17:18.832Z,0.68
2022-07-26T17:19:45.619Z,0.50
2022-07-26T17:22:12.753Z,0.60
2022-07-26T17:24:39.724Z,0.70
2022-07-26T17:27:06.533Z,0.43
2022-07-26T17:29:33.372Z,0.82
2022-07-26T17:32:00.156Z,0.70
2022-07-26T17:34:27.070Z,0.55
2022-07-26T17:37:02.688Z,0.50
2022-07-26T17:39:47.547Z,0.60
2022-07-26T17:42:21.074Z,0.77
2022-07-26T17:44:50.342Z,0.50
2022-07-26T17:47:28.211Z,0.65
2022-07-26T17:52:54.246Z,0.60
2022-07-26T17:55:22.732Z,0.57
2022-07-26T17:57:50.448Z,0.77
2022-07-26T18:00:22.300Z,0.80
2022-07-26T18:02:49.747Z,0.50
2022-07-26T18:05:18.500Z,0.60
2022-07-26T18:07:45.957Z,0.80
2022-07-26T18:10:14.322Z,0.80
2022-07-26T18:12:41.616Z,0.57
2022-07-26T18:15:09.433Z,0.50
2022-07-26T18:17:36.992Z,0.60
2022-07-26T18:20:06.212Z,0.47
2022-07-26T18:22:33.533Z,0.65
2022-07-26T18:25:00.498Z,0.60
2022-07-26T18:27:28.257Z,0.60
2022-07-26T18:29:56.291Z,0.55
2022-07-26T18:32:23.888Z,0.68
2022-07-26T18:34:52.597Z,0.80
2022-07-26T18:37:20.470Z,0.50
2022-07-26T18:39:47.739Z,0.52
2022-07-26T18:42:14.641Z,0.60
2022-07-26T18:44:41.725Z,0.60
2022-07-26T18:47:08.586Z,0.60
2022-07-26T18:49:35.845Z,0.57
2022-07-26T18:52:08.400Z,0.63
2022-07-26T18:54:36.514Z,0.50
2022-07-26T18:57:03.999Z,0.50
2022-07-26T18:59:31.119Z,0.47
2022-07-26T19:01:59.918Z,0.60
2022-07-26T19:04:27.126Z,0.73
2022-07-26T19:06:54.032Z,0.50
2022-07-26T19:09:20.954Z,0.63
2022-07-26T19:11:48.769Z,0.60
2022-07-26T19:14:15.557Z,0.47
2022-07-26T19:16:42.401Z,0.50
2022-07-26T19:19:11.055Z,0.50
2022-07-26T19:21:40.046Z,0.60
2022-07-26T19:24:07.017Z,0.63
2022-07-26T19:26:34.483Z,1.40
2022-07-26T19:29:01.354Z,1.23
2022-07-26T19:31:28.243Z,1.20
2022-07-26T19:33:55.303Z,1.00
2022-07-26T19:36:25.758Z,0.80
2022-07-26T19:38:53.633Z,0.80
2022-07-26T19:41:20.811Z,0.70
2022-07-26T19:43:47.802Z,0.80
2022-07-26T19:46:14.732Z,0.60
2022-07-26T19:48:41.627Z,0.70
2022-07-26T19:51:08.529Z,0.63
2022-07-26T19:53:35.337Z,0.50
2022-07-26T19:56:02.254Z,0.63
2022-07-26T19:58:30.795Z,0.50
2022-07-26T20:00:57.585Z,0.57
2022-07-26T20:03:24.977Z,0.70
2022-07-26T20:05:53.393Z,0.70
2022-07-26T20:08:20.195Z,0.60
2022-07-26T20:10:47.005Z,0.60
2022-07-26T20:13:13.883Z,0.50
2022-07-26T20:15:40.648Z,0.63
2022-07-26T20:18:07.512Z,0.77
2022-07-26T20:20:34.331Z,0.47
2022-07-26T20:23:02.226Z,0.70
2022-07-26T20:25:29.179Z,0.70
2022-07-26T20:27:56.030Z,0.60
2022-07-26T20:30:22.827Z,0.70
2022-07-26T20:32:49.934Z,0.47
2022-07-26T20:35:16.840Z,0.60
2022-07-26T20:37:43.670Z,0.40
2022-07-26T20:40:12.407Z,0.50
2022-07-26T20:42:44.236Z,0.53
2022-07-26T20:45:12.886Z,0.60
2022-07-26T20:47:40.561Z,0.60
2022-07-26T20:50:12.377Z,0.50
2022-07-26T20:52:40.238Z,0.50
2022-07-26T20:55:08.293Z,0.70
2022-07-26T20:57:35.553Z,0.60
2022-07-26T21:00:05.871Z,0.60
2022-07-26T21:02:32.819Z,0.50
2022-07-26T21:04:59.815Z,0.67
2022-07-26T21:07:58.513Z,0.40
2022-07-26T21:10:14.865Z,0.70
2022-07-26T21:12:42.773Z,0.50
2022-07-26T21:15:10.166Z,0.40
2022-07-26T21:17:37.230Z,0.50
2022-07-26T21:20:05.338Z,0.50
2022-07-26T21:22:32.209Z,0.53
2022-07-26T21:24:59.136Z,0.60
2022-07-26T21:27:25.983Z,0.50
2022-07-26T21:29:52.763Z,0.63
2022-07-26T21:32:19.650Z,0.50
2022-07-26T21:34:46.483Z,0.70
2022-07-26T21:37:13.417Z,1.00
2022-07-26T21:39:40.205Z,1.40
2022-07-26T21:42:07.063Z,0.90
2022-07-26T21:44:33.896Z,0.80
2022-07-26T21:47:00.702Z,1.17
2022-07-26T21:49:28.791Z,1.00
2022-07-26T21:51:55.609Z,0.80
2022-07-26T21:54:22.525Z,0.80
2022-07-26T21:56:49.551Z,0.70
2022-07-26T21:59:16.765Z,1.00
2022-07-26T22:01:43.581Z,0.83
2022-07-26T22:04:10.637Z,0.80
2022-07-26T22:06:37.965Z,0.47
2022-07-26T22:09:05.260Z,0.70
2022-07-26T22:11:32.089Z,0.60
2022-07-26T22:14:00.291Z,0.70
2022-07-26T22:16:27.833Z,0.90
2022-07-26T22:18:55.023Z,0.60
2022-07-26T22:21:22.872Z,0.60
2022-07-26T22:23:49.647Z,0.60
2022-07-26T22:26:16.573Z,0.77
2022-07-26T22:28:43.507Z,0.70
2022-07-26T22:31:10.461Z,0.70
2022-07-26T22:33:37.328Z,0.77
2022-07-26T22:36:04.606Z,0.63
2022-07-26T22:38:31.693Z,0.57
2022-07-26T22:40:59.837Z,0.50
2022-07-26T22:43:26.792Z,0.50
2022-07-26T22:45:54.692Z,0.80
2022-07-26T22:48:21.566Z,0.60
2022-07-26T22:50:48.391Z,0.67
2022-07-26T22:53:16.320Z,0.60
2022-07-26T22:55:43.085Z,0.60
2022-07-26T22:58:10.892Z,0.43
2022-07-26T23:00:38.005Z,0.67
2022-07-26T23:03:05.496Z,0.60
2022-07-26T23:05:47.725Z,0.50
2022-07-26T23:11:06.045Z,0.60
2022-07-26T23:13:33.453Z,0.50
2022-07-26T23:16:01.657Z,0.60
2022-07-26T23:18:30.647Z,0.60
2022-07-26T23:20:57.792Z,0.60
2022-07-26T23:23:29.098Z,0.80
2022-07-26T23:25:58.323Z,0.70
2022-07-26T23:28:37.040Z,0.50
2022-07-26T23:31:11.145Z,0.40
2022-07-26T23:33:53.197Z,0.60
2022-07-26T23:36:26.740Z,0.70
2022-07-26T23:38:58.421Z,0.70
2022-07-26T23:41:26.480Z,0.60
2022-07-26T23:43:54.290Z,0.70
2022-07-26T23:46:21.965Z,0.70
2022-07-26T23:48:49.575Z,0.60
2022-07-26T23:51:16.525Z,0.50
2022-07-26T23:53:43.445Z,0.60
2022-07-26T23:56:10.233Z,0.63
2022-07-26T23:58:37.575Z,0.60
